sensor_id;sensor_type;location;lat;lon;timestamp;temperature;humidity
15717;DHT22;7960;50.908;4.204;2022-08-05T00:02:25;21.50;99.90
15717;DHT22;7960;50.908;4.204;2022-08-05T00:04:52;21.30;99.90
15717;DHT22;7960;50.908;4.204;2022-08-05T00:07:19;21.40;99.90
15717;DHT22;7960;50.908;4.204;2022-08-05T00:09:45;21.40;99.90
15717;DHT22;7960;50.908;4.204;2022-08-05T00:12:12;21.40;99.90
15717;DHT22;7960;50.908;4.204;2022-08-05T00:14:39;21.40;99.90
15717;DHT22;7960;50.908;4.204;2022-08-05T00:17:06;21.60;99.90
15717;DHT22;7960;50.908;4.204;2022-08-05T00:19:34;21.60;99.90
15717;DHT22;7960;50.908;4.204;2022-08-05T00:22:01;21.60;99.90
15717;DHT22;7960;50.908;4.204;2022-08-05T00:24:29;21.60;99.90
15717;DHT22;7960;50.908;4.204;2022-08-05T00:26:56;21.50;99.90
15717;DHT22;7960;50.908;4.204;2022-08-05T00:29:23;21.50;99.90
15717;DHT22;7960;50.908;4.204;2022-08-05T00:31:49;21.40;99.90
15717;DHT22;7960;50.908;4.204;2022-08-05T00:34:16;21.50;99.90
15717;DHT22;7960;50.908;4.204;2022-08-05T00:36:44;21.50;99.90
15717;DHT22;7960;50.908;4.204;2022-08-05T00:39:11;21.50;99.90
15717;DHT22;7960;50.908;4.204;2022-08-05T00:41:38;21.60;99.90
15717;DHT22;7960;50.908;4.204;2022-08-05T00:44:05;21.60;99.90
15717;DHT22;7960;50.908;4.204;2022-08-05T00:46:32;21.70;99.90
15717;DHT22;7960;50.908;4.204;2022-08-05T00:48:59;21.60;99.90
15717;DHT22;7960;50.908;4.204;2022-08-05T00:51:26;21.70;99.90
15717;DHT22;7960;50.908;4.204;2022-08-05T00:53:54;21.60;99.90
15717;DHT22;7960;50.908;4.204;2022-08-05T00:56:21;21.50;99.90
15717;DHT22;7960;50.908;4.204;2022-08-05T00:58:48;21.40;99.90
15717;DHT22;7960;50.908;4.204;2022-08-05T01:01:15;21.50;99.90
15717;DHT22;7960;50.908;4.204;2022-08-05T01:03:42;21.50;99.90
15717;DHT22;7960;50.908;4.204;2022-08-05T01:06:10;21.50;99.90
15717;DHT22;7960;50.908;4.204;2022-08-05T01:08:37;21.50;99.90
15717;DHT22;7960;50.908;4.204;2022-08-05T01:11:10;21.50;99.90
15717;DHT22;7960;50.908;4.204;2022-08-05T01:13:44;21.50;99.90
15717;DHT22;7960;50.908;4.204;2022-08-05T01:16:17;21.40;99.90
15717;DHT22;7960;50.908;4.204;2022-08-05T01:18:50;21.30;99.90
15717;DHT22;7960;50.908;4.204;2022-08-05T01:21:34;21.20;99.90
15717;DHT22;7960;50.908;4.204;2022-08-05T01:24:15;21.20;99.90
15717;DHT22;7960;50.908;4.204;2022-08-05T01:26:58;21.00;99.90
15717;DHT22;7960;50.908;4.204;2022-08-05T01:29:31;20.70;99.90
15717;DHT22;7960;50.908;4.204;2022-08-05T01:32:02;20.60;99.90
15717;DHT22;7960;50.908;4.204;2022-08-05T01:34:35;20.60;99.90
15717;DHT22;7960;50.908;4.204;2022-08-05T01:37:08;20.70;99.90
15717;DHT22;7960;50.908;4.204;2022-08-05T01:39:37;20.80;99.90
15717;DHT22;7960;50.908;4.204;2022-08-05T01:42:05;20.80;99.90
15717;DHT22;7960;50.908;4.204;2022-08-05T01:44:35;21.00;99.90
15717;DHT22;7960;50.908;4.204;2022-08-05T01:47:03;21.20;99.90
15717;DHT22;7960;50.908;4.204;2022-08-05T01:49:30;20.90;99.90
15717;DHT22;7960;50.908;4.204;2022-08-05T01:52:00;20.80;99.90
15717;DHT22;7960;50.908;4.204;2022-08-05T01:54:30;21.00;99.90
15717;DHT22;7960;50.908;4.204;2022-08-05T01:56:59;21.10;99.90
15717;DHT22;7960;50.908;4.204;2022-08-05T01:59:27;21.20;99.90
15717;DHT22;7960;50.908;4.204;2022-08-05T02:01:59;21.10;99.90
15717;DHT22;7960;50.908;4.204;2022-08-05T02:04:28;21.10;99.90
15717;DHT22;7960;50.908;4.204;2022-08-05T02:06:56;21.00;99.90
15717;DHT22;7960;50.908;4.204;2022-08-05T02:09:23;21.00;99.90
15717;DHT22;7960;50.908;4.204;2022-08-05T02:11:57;21.00;99.90
15717;DHT22;7960;50.908;4.204;2022-08-05T02:14:28;21.10;99.90
15717;DHT22;7960;50.908;4.204;2022-08-05T02:17:02;21.10;99.90
15717;DHT22;7960;50.908;4.204;2022-08-05T02:19:33;21.00;99.90
15717;DHT22;7960;50.908;4.204;2022-08-05T02:22:04;21.00;99.90
15717;DHT22;7960;50.908;4.204;2022-08-05T02:24:37;21.00;99.90
15717;DHT22;7960;50.908;4.204;2022-08-05T02:27:06;20.90;99.90
15717;DHT22;7960;50.908;4.204;2022-08-05T02:29:35;21.00;99.90
15717;DHT22;7960;50.908;4.204;2022-08-05T02:32:07;21.00;99.90
15717;DHT22;7960;50.908;4.204;2022-08-05T02:34:35;21.00;99.90
15717;DHT22;7960;50.908;4.204;2022-08-05T02:37:04;21.10;99.90
15717;DHT22;7960;50.908;4.204;2022-08-05T02:39:36;21.20;99.90
15717;DHT22;7960;50.908;4.204;2022-08-05T02:42:04;21.20;99.90
15717;DHT22;7960;50.908;4.204;2022-08-05T02:44:34;21.20;99.90
15717;DHT22;7960;50.908;4.204;2022-08-05T02:47:04;21.10;99.90
15717;DHT22;7960;50.908;4.204;2022-08-05T02:49:35;21.10;99.90
15717;DHT22;7960;50.908;4.204;2022-08-05T02:52:05;21.30;99.90
15717;DHT22;7960;50.908;4.204;2022-08-05T02:54:33;21.20;99.90
15717;DHT22;7960;50.908;4.204;2022-08-05T02:57:01;21.10;99.90
15717;DHT22;7960;50.908;4.204;2022-08-05T02:59:28;20.80;99.90
15717;DHT22;7960;50.908;4.204;2022-08-05T03:01:57;20.70;99.90
15717;DHT22;7960;50.908;4.204;2022-08-05T03:04:27;20.80;99.90
15717;DHT22;7960;50.908;4.204;2022-08-05T03:06:54;20.90;99.90
15717;DHT22;7960;50.908;4.204;2022-08-05T03:09:23;20.90;99.90
15717;DHT22;7960;50.908;4.204;2022-08-05T03:11:51;20.90;99.90
15717;DHT22;7960;50.908;4.204;2022-08-05T03:14:18;20.90;99.90
15717;DHT22;7960;50.908;4.204;2022-08-05T03:16:45;20.80;99.90
15717;DHT22;7960;50.908;4.204;2022-08-05T03:19:12;20.80;99.90
15717;DHT22;7960;50.908;4.204;2022-08-05T03:21:40;21.00;99.90
15717;DHT22;7960;50.908;4.204;2022-08-05T03:24:08;20.90;99.90
15717;DHT22;7960;50.908;4.204;2022-08-05T03:26:35;20.80;99.90
15717;DHT22;7960;50.908;4.204;2022-08-05T03:29:04;20.70;99.90
15717;DHT22;7960;50.908;4.204;2022-08-05T03:31:32;20.70;99.90
15717;DHT22;7960;50.908;4.204;2022-08-05T03:33:59;20.80;99.90
15717;DHT22;7960;50.908;4.204;2022-08-05T03:36:26;20.80;99.90
15717;DHT22;7960;50.908;4.204;2022-08-05T03:38:54;20.80;99.90
15717;DHT22;7960;50.908;4.204;2022-08-05T03:41:21;20.70;99.90
15717;DHT22;7960;50.908;4.204;2022-08-05T03:43:48;20.70;99.90
15717;DHT22;7960;50.908;4.204;2022-08-05T03:46:15;20.60;99.90
15717;DHT22;7960;50.908;4.204;2022-08-05T03:48:42;20.70;99.90
15717;DHT22;7960;50.908;4.204;2022-08-05T03:51:14;20.80;99.90
15717;DHT22;7960;50.908;4.204;2022-08-05T03:53:49;20.70;99.90
15717;DHT22;7960;50.908;4.204;2022-08-05T03:56:25;20.70;99.90
15717;DHT22;7960;50.908;4.204;2022-08-05T03:59:00;20.70;99.90
15717;DHT22;7960;50.908;4.204;2022-08-05T04:01:30;20.70;99.90
15717;DHT22;7960;50.908;4.204;2022-08-05T04:03:58;20.60;99.90
15717;DHT22;7960;50.908;4.204;2022-08-05T04:06:26;20.30;99.90
15717;DHT22;7960;50.908;4.204;2022-08-05T04:08:54;20.20;99.90
15717;DHT22;7960;50.908;4.204;2022-08-05T04:11:23;20.30;99.90
15717;DHT22;7960;50.908;4.204;2022-08-05T04:13:51;20.30;99.90
15717;DHT22;7960;50.908;4.204;2022-08-05T04:16:18;20.20;99.90
15717;DHT22;7960;50.908;4.204;2022-08-05T04:18:45;20.30;99.90
15717;DHT22;7960;50.908;4.204;2022-08-05T04:21:12;20.30;99.90
15717;DHT22;7960;50.908;4.204;2022-08-05T04:23:39;20.30;99.90
15717;DHT22;7960;50.908;4.204;2022-08-05T04:26:06;20.30;99.90
15717;DHT22;7960;50.908;4.204;2022-08-05T04:28:34;20.20;99.90
15717;DHT22;7960;50.908;4.204;2022-08-05T04:31:01;20.20;99.90
15717;DHT22;7960;50.908;4.204;2022-08-05T04:33:29;20.20;99.90
15717;DHT22;7960;50.908;4.204;2022-08-05T04:35:56;20.20;99.90
15717;DHT22;7960;50.908;4.204;2022-08-05T04:38:23;20.20;99.90
15717;DHT22;7960;50.908;4.204;2022-08-05T04:40:50;20.20;99.90
15717;DHT22;7960;50.908;4.204;2022-08-05T04:43:17;20.30;99.90
15717;DHT22;7960;50.908;4.204;2022-08-05T04:45:45;20.40;99.90
15717;DHT22;7960;50.908;4.204;2022-08-05T04:48:14;20.50;99.90
15717;DHT22;7960;50.908;4.204;2022-08-05T04:50:42;20.40;99.90
15717;DHT22;7960;50.908;4.204;2022-08-05T04:53:11;20.50;99.90
15717;DHT22;7960;50.908;4.204;2022-08-05T04:55:39;20.60;99.90
15717;DHT22;7960;50.908;4.204;2022-08-05T04:58:07;20.60;99.90
15717;DHT22;7960;50.908;4.204;2022-08-05T05:00:34;20.50;99.90
15717;DHT22;7960;50.908;4.204;2022-08-05T05:03:03;20.40;99.90
15717;DHT22;7960;50.908;4.204;2022-08-05T05:05:30;20.30;99.90
15717;DHT22;7960;50.908;4.204;2022-08-05T05:08:00;20.20;99.90
15717;DHT22;7960;50.908;4.204;2022-08-05T05:10:28;20.10;99.90
15717;DHT22;7960;50.908;4.204;2022-08-05T05:12:55;20.10;99.90
15717;DHT22;7960;50.908;4.204;2022-08-05T05:15:22;20.00;99.90
15717;DHT22;7960;50.908;4.204;2022-08-05T05:17:49;20.00;99.90
15717;DHT22;7960;50.908;4.204;2022-08-05T05:20:17;20.10;99.90
15717;DHT22;7960;50.908;4.204;2022-08-05T05:22:44;20.30;99.90
15717;DHT22;7960;50.908;4.204;2022-08-05T05:25:11;20.40;99.90
15717;DHT22;7960;50.908;4.204;2022-08-05T05:27:39;20.40;99.90
15717;DHT22;7960;50.908;4.204;2022-08-05T05:30:07;20.40;99.90
15717;DHT22;7960;50.908;4.204;2022-08-05T05:32:34;20.20;99.90
15717;DHT22;7960;50.908;4.204;2022-08-05T05:35:01;20.30;99.90
15717;DHT22;7960;50.908;4.204;2022-08-05T05:37:29;20.20;99.90
15717;DHT22;7960;50.908;4.204;2022-08-05T05:39:56;20.30;99.90
15717;DHT22;7960;50.908;4.204;2022-08-05T05:42:22;20.30;99.90
15717;DHT22;7960;50.908;4.204;2022-08-05T05:44:49;20.30;99.90
15717;DHT22;7960;50.908;4.204;2022-08-05T05:47:16;20.20;99.90
15717;DHT22;7960;50.908;4.204;2022-08-05T05:49:43;20.30;99.90
15717;DHT22;7960;50.908;4.204;2022-08-05T05:52:10;20.40;99.90
15717;DHT22;7960;50.908;4.204;2022-08-05T05:54:38;20.40;99.90
15717;DHT22;7960;50.908;4.204;2022-08-05T05:57:05;20.40;99.90
15717;DHT22;7960;50.908;4.204;2022-08-05T05:59:32;20.50;99.90
15717;DHT22;7960;50.908;4.204;2022-08-05T06:01:59;20.40;99.90
15717;DHT22;7960;50.908;4.204;2022-08-05T06:04:26;20.60;99.90
15717;DHT22;7960;50.908;4.204;2022-08-05T06:06:53;20.60;99.90
15717;DHT22;7960;50.908;4.204;2022-08-05T06:09:20;20.50;99.90
15717;DHT22;7960;50.908;4.204;2022-08-05T06:11:50;20.50;99.90
15717;DHT22;7960;50.908;4.204;2022-08-05T06:14:17;20.50;99.90
15717;DHT22;7960;50.908;4.204;2022-08-05T06:16:44;20.60;99.90
15717;DHT22;7960;50.908;4.204;2022-08-05T06:19:11;20.70;99.90
15717;DHT22;7960;50.908;4.204;2022-08-05T06:21:38;20.60;99.90
15717;DHT22;7960;50.908;4.204;2022-08-05T06:24:06;20.70;99.90
15717;DHT22;7960;50.908;4.204;2022-08-05T06:26:34;20.80;99.90
15717;DHT22;7960;50.908;4.204;2022-08-05T06:29:03;20.70;99.90
15717;DHT22;7960;50.908;4.204;2022-08-05T06:31:30;20.70;99.90
15717;DHT22;7960;50.908;4.204;2022-08-05T06:33:57;20.60;99.90
15717;DHT22;7960;50.908;4.204;2022-08-05T06:36:24;20.70;99.90
15717;DHT22;7960;50.908;4.204;2022-08-05T06:38:51;20.60;99.90
15717;DHT22;7960;50.908;4.204;2022-08-05T06:41:19;20.60;99.90
15717;DHT22;7960;50.908;4.204;2022-08-05T06:43:47;20.80;99.90
15717;DHT22;7960;50.908;4.204;2022-08-05T06:46:16;20.80;99.90
15717;DHT22;7960;50.908;4.204;2022-08-05T06:48:42;21.00;99.90
15717;DHT22;7960;50.908;4.204;2022-08-05T06:51:10;21.00;99.90
15717;DHT22;7960;50.908;4.204;2022-08-05T06:53:37;21.00;99.90
15717;DHT22;7960;50.908;4.204;2022-08-05T06:56:04;21.00;99.90
15717;DHT22;7960;50.908;4.204;2022-08-05T06:58:31;21.00;99.90
15717;DHT22;7960;50.908;4.204;2022-08-05T07:00:59;21.10;99.90
15717;DHT22;7960;50.908;4.204;2022-08-05T07:03:28;21.20;99.90
15717;DHT22;7960;50.908;4.204;2022-08-05T07:06:00;21.30;99.90
15717;DHT22;7960;50.908;4.204;2022-08-05T07:08:28;21.20;99.90
15717;DHT22;7960;50.908;4.204;2022-08-05T07:10:55;21.20;99.90
15717;DHT22;7960;50.908;4.204;2022-08-05T07:13:23;21.20;99.90
15717;DHT22;7960;50.908;4.204;2022-08-05T07:16:08;21.10;99.90
15717;DHT22;7960;50.908;4.204;2022-08-05T07:18:54;21.10;99.90
15717;DHT22;7960;50.908;4.204;2022-08-05T07:21:20;21.00;99.90
15717;DHT22;7960;50.908;4.204;2022-08-05T07:23:47;21.10;99.90
15717;DHT22;7960;50.908;4.204;2022-08-05T07:26:14;21.20;99.90
15717;DHT22;7960;50.908;4.204;2022-08-05T07:28:41;21.20;99.90
15717;DHT22;7960;50.908;4.204;2022-08-05T07:31:08;21.10;99.90
15717;DHT22;7960;50.908;4.204;2022-08-05T07:33:36;21.20;99.90
15717;DHT22;7960;50.908;4.204;2022-08-05T07:36:05;21.20;99.90
15717;DHT22;7960;50.908;4.204;2022-08-05T07:38:32;21.40;99.90
15717;DHT22;7960;50.908;4.204;2022-08-05T07:40:59;21.40;99.90
15717;DHT22;7960;50.908;4.204;2022-08-05T07:43:26;21.50;99.90
15717;DHT22;7960;50.908;4.204;2022-08-05T07:45:54;21.60;99.90
15717;DHT22;7960;50.908;4.204;2022-08-05T07:48:21;21.70;99.90
15717;DHT22;7960;50.908;4.204;2022-08-05T07:50:47;21.70;99.90
15717;DHT22;7960;50.908;4.204;2022-08-05T07:53:16;21.80;99.90
15717;DHT22;7960;50.908;4.204;2022-08-05T07:55:43;21.80;99.90
15717;DHT22;7960;50.908;4.204;2022-08-05T07:58:11;21.90;99.90
15717;DHT22;7960;50.908;4.204;2022-08-05T08:00:38;21.90;99.90
15717;DHT22;7960;50.908;4.204;2022-08-05T08:03:09;21.90;99.90
15717;DHT22;7960;50.908;4.204;2022-08-05T08:05:36;21.90;99.90
15717;DHT22;7960;50.908;4.204;2022-08-05T08:08:03;21.90;99.90
15717;DHT22;7960;50.908;4.204;2022-08-05T08:10:32;21.90;99.90
15717;DHT22;7960;50.908;4.204;2022-08-05T08:12:59;21.90;99.90
15717;DHT22;7960;50.908;4.204;2022-08-05T08:15:26;22.00;99.90
15717;DHT22;7960;50.908;4.204;2022-08-05T08:17:54;21.90;99.90
15717;DHT22;7960;50.908;4.204;2022-08-05T08:20:21;21.90;99.90
15717;DHT22;7960;50.908;4.204;2022-08-05T08:22:52;21.80;99.90
15717;DHT22;7960;50.908;4.204;2022-08-05T08:25:19;21.90;99.90
15717;DHT22;7960;50.908;4.204;2022-08-05T08:27:48;22.00;99.90
15717;DHT22;7960;50.908;4.204;2022-08-05T08:30:15;22.00;99.90
15717;DHT22;7960;50.908;4.204;2022-08-05T08:32:44;22.10;99.90
15717;DHT22;7960;50.908;4.204;2022-08-05T08:35:11;22.20;99.90
15717;DHT22;7960;50.908;4.204;2022-08-05T08:37:38;22.30;99.90
15717;DHT22;7960;50.908;4.204;2022-08-05T08:40:06;22.30;99.90
15717;DHT22;7960;50.908;4.204;2022-08-05T08:42:35;22.30;99.90
15717;DHT22;7960;50.908;4.204;2022-08-05T08:45:05;22.10;99.90
15717;DHT22;7960;50.908;4.204;2022-08-05T08:47:33;21.90;99.90
15717;DHT22;7960;50.908;4.204;2022-08-05T08:50:02;22.20;99.90
15717;DHT22;7960;50.908;4.204;2022-08-05T08:52:30;22.10;99.90
15717;DHT22;7960;50.908;4.204;2022-08-05T08:54:58;22.40;99.90
15717;DHT22;7960;50.908;4.204;2022-08-05T08:57:25;22.40;99.90
15717;DHT22;7960;50.908;4.204;2022-08-05T08:59:53;22.60;99.90
15717;DHT22;7960;50.908;4.204;2022-08-05T09:02:24;22.80;99.90
15717;DHT22;7960;50.908;4.204;2022-08-05T09:04:51;22.50;99.90
15717;DHT22;7960;50.908;4.204;2022-08-05T09:07:18;22.60;99.90
15717;DHT22;7960;50.908;4.204;2022-08-05T09:09:54;22.50;99.90
15717;DHT22;7960;50.908;4.204;2022-08-05T09:12:20;22.80;99.90
15717;DHT22;7960;50.908;4.204;2022-08-05T09:14:47;23.20;99.90
15717;DHT22;7960;50.908;4.204;2022-08-05T09:17:15;23.50;99.90
15717;DHT22;7960;50.908;4.204;2022-08-05T09:19:44;23.70;99.90
15717;DHT22;7960;50.908;4.204;2022-08-05T09:22:11;23.90;99.90
15717;DHT22;7960;50.908;4.204;2022-08-05T09:24:56;23.90;99.90
15717;DHT22;7960;50.908;4.204;2022-08-05T09:27:32;23.70;99.90
15717;DHT22;7960;50.908;4.204;2022-08-05T09:29:59;23.40;99.90
15717;DHT22;7960;50.908;4.204;2022-08-05T09:32:36;23.30;99.90
15717;DHT22;7960;50.908;4.204;2022-08-05T09:35:11;23.10;99.90
15717;DHT22;7960;50.908;4.204;2022-08-05T09:37:47;23.00;99.90
15717;DHT22;7960;50.908;4.204;2022-08-05T09:40:31;23.40;99.90
15717;DHT22;7960;50.908;4.204;2022-08-05T09:43:01;23.60;99.90
15717;DHT22;7960;50.908;4.204;2022-08-05T09:45:35;23.80;99.90
15717;DHT22;7960;50.908;4.204;2022-08-05T09:48:18;24.20;99.90
15717;DHT22;7960;50.908;4.204;2022-08-05T09:50:51;24.20;99.90
15717;DHT22;7960;50.908;4.204;2022-08-05T09:53:19;24.40;99.90
15717;DHT22;7960;50.908;4.204;2022-08-05T09:55:50;24.30;99.90
15717;DHT22;7960;50.908;4.204;2022-08-05T09:58:17;24.50;99.90
15717;DHT22;7960;50.908;4.204;2022-08-05T10:00:56;24.50;99.90
15717;DHT22;7960;50.908;4.204;2022-08-05T10:03:24;23.90;99.90
15717;DHT22;7960;50.908;4.204;2022-08-05T10:06:04;24.00;99.90
15717;DHT22;7960;50.908;4.204;2022-08-05T10:08:32;24.50;99.90
15717;DHT22;7960;50.908;4.204;2022-08-05T10:11:01;24.50;99.90
15717;DHT22;7960;50.908;4.204;2022-08-05T10:13:32;24.50;99.90
15717;DHT22;7960;50.908;4.204;2022-08-05T10:16:00;24.50;99.90
15717;DHT22;7960;50.908;4.204;2022-08-05T10:18:28;24.60;99.90
15717;DHT22;7960;50.908;4.204;2022-08-05T10:20:58;24.80;99.90
15717;DHT22;7960;50.908;4.204;2022-08-05T10:23:28;24.90;99.90
15717;DHT22;7960;50.908;4.204;2022-08-05T10:25:57;25.00;99.90
15717;DHT22;7960;50.908;4.204;2022-08-05T10:28:24;24.60;99.90
15717;DHT22;7960;50.908;4.204;2022-08-05T10:30:52;24.90;99.90
15717;DHT22;7960;50.908;4.204;2022-08-05T10:33:20;25.30;99.90
15717;DHT22;7960;50.908;4.204;2022-08-05T10:35:51;25.60;99.90
15717;DHT22;7960;50.908;4.204;2022-08-05T10:38:18;25.20;99.90
15717;DHT22;7960;50.908;4.204;2022-08-05T10:40:53;24.90;99.90
15717;DHT22;7960;50.908;4.204;2022-08-05T10:43:34;24.90;99.90
15717;DHT22;7960;50.908;4.204;2022-08-05T10:46:04;25.00;99.90
15717;DHT22;7960;50.908;4.204;2022-08-05T10:48:34;25.20;99.90
15717;DHT22;7960;50.908;4.204;2022-08-05T10:51:03;25.20;99.90
15717;DHT22;7960;50.908;4.204;2022-08-05T10:53:42;25.00;99.90
15717;DHT22;7960;50.908;4.204;2022-08-05T10:56:14;24.80;99.90
15717;DHT22;7960;50.908;4.204;2022-08-05T10:59:03;25.00;99.90
15717;DHT22;7960;50.908;4.204;2022-08-05T11:01:36;25.10;99.90
15717;DHT22;7960;50.908;4.204;2022-08-05T11:04:09;25.20;99.90
15717;DHT22;7960;50.908;4.204;2022-08-05T11:07:04;25.40;99.90
15717;DHT22;7960;50.908;4.204;2022-08-05T11:09:42;25.60;99.90
15717;DHT22;7960;50.908;4.204;2022-08-05T11:12:44;25.30;99.90
15717;DHT22;7960;50.908;4.204;2022-08-05T11:15:23;25.00;99.90
15717;DHT22;7960;50.908;4.204;2022-08-05T11:17:52;24.80;99.90
15717;DHT22;7960;50.908;4.204;2022-08-05T11:20:40;24.50;99.90
15717;DHT22;7960;50.908;4.204;2022-08-05T11:23:31;24.70;99.90
15717;DHT22;7960;50.908;4.204;2022-08-05T11:26:04;24.90;99.90
15717;DHT22;7960;50.908;4.204;2022-08-05T11:28:45;25.10;99.90
15717;DHT22;7960;50.908;4.204;2022-08-05T11:31:33;25.10;99.90
15717;DHT22;7960;50.908;4.204;2022-08-05T11:34:02;24.80;99.90
15717;DHT22;7960;50.908;4.204;2022-08-05T11:36:46;24.60;99.90
15717;DHT22;7960;50.908;4.204;2022-08-05T11:39:45;24.40;99.90
15717;DHT22;7960;50.908;4.204;2022-08-05T11:42:04;24.50;99.90
15717;DHT22;7960;50.908;4.204;2022-08-05T11:44:37;24.60;99.90
15717;DHT22;7960;50.908;4.204;2022-08-05T11:47:05;24.70;99.90
15717;DHT22;7960;50.908;4.204;2022-08-05T11:49:32;24.70;99.90
15717;DHT22;7960;50.908;4.204;2022-08-05T11:52:01;25.10;99.90
15717;DHT22;7960;50.908;4.204;2022-08-05T11:54:29;25.60;99.90
15717;DHT22;7960;50.908;4.204;2022-08-05T11:56:59;25.30;99.90
15717;DHT22;7960;50.908;4.204;2022-08-05T11:59:28;25.10;99.90
15717;DHT22;7960;50.908;4.204;2022-08-05T12:02:01;24.90;99.90
15717;DHT22;7960;50.908;4.204;2022-08-05T12:04:37;25.50;99.90
15717;DHT22;7960;50.908;4.204;2022-08-05T12:07:07;25.60;99.90
15717;DHT22;7960;50.908;4.204;2022-08-05T12:09:38;25.80;99.90
15717;DHT22;7960;50.908;4.204;2022-08-05T12:12:06;25.60;99.90
15717;DHT22;7960;50.908;4.204;2022-08-05T12:14:38;25.60;99.90
15717;DHT22;7960;50.908;4.204;2022-08-05T12:17:11;25.70;99.90
15717;DHT22;7960;50.908;4.204;2022-08-05T12:19:43;26.00;99.90
15717;DHT22;7960;50.908;4.204;2022-08-05T12:22:11;26.10;99.90
15717;DHT22;7960;50.908;4.204;2022-08-05T12:24:42;26.40;99.90
15717;DHT22;7960;50.908;4.204;2022-08-05T12:27:17;26.30;99.90
15717;DHT22;7960;50.908;4.204;2022-08-05T12:29:44;26.30;99.90
15717;DHT22;7960;50.908;4.204;2022-08-05T12:32:12;26.60;99.90
15717;DHT22;7960;50.908;4.204;2022-08-05T12:34:42;26.90;99.90
15717;DHT22;7960;50.908;4.204;2022-08-05T12:37:09;26.90;99.60
15717;DHT22;7960;50.908;4.204;2022-08-05T12:39:37;27.10;99.40
15717;DHT22;7960;50.908;4.204;2022-08-05T12:42:09;27.40;99.10
15717;DHT22;7960;50.908;4.204;2022-08-05T12:44:37;27.70;97.90
15717;DHT22;7960;50.908;4.204;2022-08-05T12:47:06;27.60;97.40
15717;DHT22;7960;50.908;4.204;2022-08-05T12:49:42;27.90;97.20
15717;DHT22;7960;50.908;4.204;2022-08-05T12:52:14;27.30;98.10
15717;DHT22;7960;50.908;4.204;2022-08-05T12:54:44;26.80;98.00
15717;DHT22;7960;50.908;4.204;2022-08-05T12:57:14;26.40;98.20
15717;DHT22;7960;50.908;4.204;2022-08-05T12:59:44;26.10;99.00
15717;DHT22;7960;50.908;4.204;2022-08-05T13:02:15;26.70;98.60
15717;DHT22;7960;50.908;4.204;2022-08-05T13:04:44;26.80;98.50
15717;DHT22;7960;50.908;4.204;2022-08-05T13:07:16;26.60;98.40
15717;DHT22;7960;50.908;4.204;2022-08-05T13:09:51;26.00;97.80
15717;DHT22;7960;50.908;4.204;2022-08-05T13:12:27;25.30;98.10
15717;DHT22;7960;50.908;4.204;2022-08-05T13:14:56;25.30;99.00
15717;DHT22;7960;50.908;4.204;2022-08-05T13:17:25;25.20;98.90
15717;DHT22;7960;50.908;4.204;2022-08-05T13:20:02;25.40;98.90
15717;DHT22;7960;50.908;4.204;2022-08-05T13:22:31;25.60;98.80
15717;DHT22;7960;50.908;4.204;2022-08-05T13:24:59;25.10;98.60
15717;DHT22;7960;50.908;4.204;2022-08-05T13:27:29;25.10;99.80
15717;DHT22;7960;50.908;4.204;2022-08-05T13:29:57;25.60;99.90
15717;DHT22;7960;50.908;4.204;2022-08-05T13:32:24;25.50;99.70
15717;DHT22;7960;50.908;4.204;2022-08-05T13:34:52;25.40;99.00
15717;DHT22;7960;50.908;4.204;2022-08-05T13:37:23;25.50;99.60
15717;DHT22;7960;50.908;4.204;2022-08-05T13:39:50;25.60;99.50
15717;DHT22;7960;50.908;4.204;2022-08-05T13:42:19;25.60;99.30
15717;DHT22;7960;50.908;4.204;2022-08-05T13:44:50;25.90;99.20
15717;DHT22;7960;50.908;4.204;2022-08-05T13:47:17;25.40;98.90
15717;DHT22;7960;50.908;4.204;2022-08-05T13:49:44;25.60;98.80
15717;DHT22;7960;50.908;4.204;2022-08-05T13:52:14;26.00;98.40
15717;DHT22;7960;50.908;4.204;2022-08-05T13:54:46;26.40;97.90
15717;DHT22;7960;50.908;4.204;2022-08-05T13:57:14;27.20;96.70
15717;DHT22;7960;50.908;4.204;2022-08-05T13:59:42;27.90;95.30
15717;DHT22;7960;50.908;4.204;2022-08-05T14:02:13;27.60;94.80
15717;DHT22;7960;50.908;4.204;2022-08-05T14:04:42;26.50;94.60
15717;DHT22;7960;50.908;4.204;2022-08-05T14:07:28;26.00;95.90
15717;DHT22;7960;50.908;4.204;2022-08-05T14:09:57;25.80;95.90
15717;DHT22;7960;50.908;4.204;2022-08-05T14:12:24;25.60;96.00
15717;DHT22;7960;50.908;4.204;2022-08-05T14:14:51;25.50;95.90
15717;DHT22;7960;50.908;4.204;2022-08-05T14:17:18;25.90;95.60
15717;DHT22;7960;50.908;4.204;2022-08-05T14:19:47;26.70;95.10
15717;DHT22;7960;50.908;4.204;2022-08-05T14:22:14;27.50;94.30
15717;DHT22;7960;50.908;4.204;2022-08-05T14:24:42;28.00;93.90
15717;DHT22;7960;50.908;4.204;2022-08-05T14:27:11;28.20;93.10
15717;DHT22;7960;50.908;4.204;2022-08-05T14:29:38;28.10;92.70
15717;DHT22;7960;50.908;4.204;2022-08-05T14:32:06;28.50;92.80
15717;DHT22;7960;50.908;4.204;2022-08-05T14:34:33;28.80;93.00
15717;DHT22;7960;50.908;4.204;2022-08-05T14:37:00;28.40;92.30
15717;DHT22;7960;50.908;4.204;2022-08-05T14:39:27;27.30;92.60
15717;DHT22;7960;50.908;4.204;2022-08-05T14:41:54;26.70;93.70
15717;DHT22;7960;50.908;4.204;2022-08-05T14:44:22;26.70;93.70
15717;DHT22;7960;50.908;4.204;2022-08-05T14:46:49;26.30;93.30
15717;DHT22;7960;50.908;4.204;2022-08-05T14:49:16;25.90;93.40
15717;DHT22;7960;50.908;4.204;2022-08-05T14:51:43;26.10;93.80
15717;DHT22;7960;50.908;4.204;2022-08-05T14:54:11;26.20;94.30
15717;DHT22;7960;50.908;4.204;2022-08-05T14:56:38;26.10;93.50
15717;DHT22;7960;50.908;4.204;2022-08-05T14:59:05;26.10;94.30
15717;DHT22;7960;50.908;4.204;2022-08-05T15:01:33;26.40;94.10
15717;DHT22;7960;50.908;4.204;2022-08-05T15:04:00;26.50;94.00
15717;DHT22;7960;50.908;4.204;2022-08-05T15:06:27;26.50;93.60
15717;DHT22;7960;50.908;4.204;2022-08-05T15:08:54;26.20;93.80
15717;DHT22;7960;50.908;4.204;2022-08-05T15:11:22;26.00;93.70
15717;DHT22;7960;50.908;4.204;2022-08-05T15:13:49;25.70;93.90
15717;DHT22;7960;50.908;4.204;2022-08-05T15:16:16;25.60;93.80
15717;DHT22;7960;50.908;4.204;2022-08-05T15:18:44;25.80;93.60
15717;DHT22;7960;50.908;4.204;2022-08-05T15:21:11;26.50;93.00
15717;DHT22;7960;50.908;4.204;2022-08-05T15:23:39;26.70;92.20
15717;DHT22;7960;50.908;4.204;2022-08-05T15:26:05;26.20;92.30
15717;DHT22;7960;50.908;4.204;2022-08-05T15:28:32;25.90;93.40
15717;DHT22;7960;50.908;4.204;2022-08-05T15:30:59;25.90;94.00
15717;DHT22;7960;50.908;4.204;2022-08-05T15:33:27;25.80;94.30
15717;DHT22;7960;50.908;4.204;2022-08-05T15:35:55;25.70;94.50
15717;DHT22;7960;50.908;4.204;2022-08-05T15:38:22;25.90;94.70
15717;DHT22;7960;50.908;4.204;2022-08-05T15:40:49;26.30;95.30
15717;DHT22;7960;50.908;4.204;2022-08-05T15:43:16;26.50;94.60
15717;DHT22;7960;50.908;4.204;2022-08-05T15:45:43;26.50;95.60
15717;DHT22;7960;50.908;4.204;2022-08-05T15:48:10;26.40;95.30
15717;DHT22;7960;50.908;4.204;2022-08-05T15:50:37;26.40;95.20
15717;DHT22;7960;50.908;4.204;2022-08-05T15:53:05;26.80;94.80
15717;DHT22;7960;50.908;4.204;2022-08-05T15:55:32;27.10;93.90
15717;DHT22;7960;50.908;4.204;2022-08-05T15:57:59;27.40;93.90
15717;DHT22;7960;50.908;4.204;2022-08-05T16:00:26;27.40;93.20